Goddard, KS (67052)

03:29 CDT le 26 octobre 2014 (GMT -0500)
Goddard South | Change Station
CLOSE
Current Station
Stations météorologiques personnelles
Location: Goddard, KS
Altitude: 1444 ft
Stations météo à proximité

Alt. 1444 ft 37.64 °N, 97.59 °W | Updated 7 minutes ago

Ciel dégagé
Ciel dégagé
64.1 ° F
Paraît 64.1 ° F
N
2.0
Vent Variable Vent de SSE
Gusts 2.0 mph

Aujourd'hui
Haut(e) -- | Bas -- ° F
--% Risque de précip.
Hier
Haut(e) -- | Bas -- ° F
Precip. -- pouce
7:49 AM 6:38 PM
Lune montante, 6% visible
Pression 29.88 pouce
Visibilité 10.0 Miles terrestres
Nuages Ciel dégagé
Point de rosée 56 ° F
Humidité 76%
Précipitations 0.00 pouce
Profondeur de la couche neigeuse Non disponible.
UV 0 sur 12
Pollen 3.30 sur 12
Qualité de l'air Non disponible.
Flu Activity No Activity
METAR KICT 260753Z 17006KT 10SM CLR 17/13 A2992 RMK AO2 SLP117 T01670128

More Conditions Fewer Conditions

Pression 29.88 pouce
Visibilité 10.0 Miles terrestres
Nuages Ciel dégagé
Point de rosée 56 ° F
Humidité 76%
Précipitations 0.00 pouce
Profondeur de la couche neigeuse Non disponible.
UV 0 sur 12
Pollen 3.30 sur 12
Qualité de l'air Non disponible.
Flu Activity No Activity
METAR KICT 260753Z 17006KT 10SM CLR 17/13 A2992 RMK AO2 SLP117 T01670128

More Conditions Fewer Conditions

10-Day Weather Forecast

Almanac

Astronomie

Oct. 26, 2014 Lever Coucher
Temps réel 07:49 CDT 18:38 CDT
Crépuscule civil 07:22 CDT 19:05 CDT
Crépuscule nautique 06:51 CDT 19:36 CDT
Crépuscule astronomique 06:21 CDT 20:06 CDT
Lune 10:26 CDT 20:53 CDT
Durée de lumière visible 11h 42m
Longueur du jour
10h 49m
Tomorrow will be 2m 12s shorter.
Lune montante, 6% of the Moon is Illuminated
Aujourd'hui
Lune montante
Oct 30
Premier quartier
Nov 6
Pleine lune
Nov 14
Dernier quartier
Nov 22
Nouveau

Extrêmes aujourd'hui

State Highs State Lows

Community

WunderPhotos

Upload Photos

1,765,125 Photos téléchargées !

Nearby

Épaisseur de neige

Station Depth Altitude
Pas de nouvelles chutes de neige

Activité sismique

Ville Distance Mag. Time & Date
Mooreland, Oklahoma 111 Miles terrestres 2.9 15:21 CDT
2014-10-25
Langston, Oklahoma 124 Miles terrestres 3.0 07:36 CDT
2014-10-25
Pawnee, Oklahoma 94 Miles terrestres 2.6 19:24 CDT
2014-10-24
Mooreland, Oklahoma 118 Miles terrestres 2.5 14:43 CDT
2014-10-24
Minimum magnitude displayed is 2.5.

Températures des eaux côtières

Lieu Température
Aucun rapport de station

Stations météo à proximité